sensor_id;sensor_type;location;lat;lon;timestamp;P1;durP1;ratioP1;P2;durP2;ratioP2
72974;SDS011;61166;54.228;37.632;2022-09-09T00:00:31;11.10;;;4.03;;
72974;SDS011;61166;54.228;37.632;2022-09-09T00:03:02;11.10;;;4.22;;
72974;SDS011;61166;54.228;37.632;2022-09-09T00:06:31;10.00;;;4.32;;
72974;SDS011;61166;54.228;37.632;2022-09-09T00:08:28;10.13;;;3.93;;
72974;SDS011;61166;54.228;37.632;2022-09-09T00:11:01;10.20;;;3.50;;
72974;SDS011;61166;54.228;37.632;2022-09-09T00:15:59;9.60;;;3.30;;
72974;SDS011;61166;54.228;37.632;2022-09-09T00:18:31;9.07;;;3.72;;
72974;SDS011;61166;54.228;37.632;2022-09-09T00:21:04;9.88;;;3.90;;
72974;SDS011;61166;54.228;37.632;2022-09-09T00:23:35;10.43;;;4.07;;
72974;SDS011;61166;54.228;37.632;2022-09-09T00:28:42;9.52;;;3.90;;
72974;SDS011;61166;54.228;37.632;2022-09-09T00:31:14;7.63;;;3.08;;
72974;SDS011;61166;54.228;37.632;2022-09-09T00:33:41;8.70;;;3.60;;
72974;SDS011;61166;54.228;37.632;2022-09-09T00:36:12;10.10;;;3.33;;
72974;SDS011;61166;54.228;37.632;2022-09-09T00:38:48;8.70;;;3.58;;
72974;SDS011;61166;54.228;37.632;2022-09-09T00:43:40;7.67;;;3.20;;
72974;SDS011;61166;54.228;37.632;2022-09-09T00:51:17;6.13;;;3.07;;
72974;SDS011;61166;54.228;37.632;2022-09-09T00:56:23;10.60;;;4.00;;
72974;SDS011;61166;54.228;37.632;2022-09-09T01:01:41;10.48;;;3.67;;
72974;SDS011;61166;54.228;37.632;2022-09-09T01:04:11;10.07;;;3.57;;
72974;SDS011;61166;54.228;37.632;2022-09-09T01:06:47;8.90;;;3.60;;
72974;SDS011;61166;54.228;37.632;2022-09-09T01:24:42;8.02;;;3.70;;
72974;SDS011;61166;54.228;37.632;2022-09-09T01:27:10;8.30;;;3.90;;
72974;SDS011;61166;54.228;37.632;2022-09-09T01:29:35;8.83;;;3.70;;
72974;SDS011;61166;54.228;37.632;2022-09-09T01:32:02;7.35;;;3.15;;
72974;SDS011;61166;54.228;37.632;2022-09-09T01:34:31;7.97;;;3.77;;
72974;SDS011;61166;54.228;37.632;2022-09-09T01:39:23;8.20;;;3.43;;
72974;SDS011;61166;54.228;37.632;2022-09-09T01:41:48;9.35;;;3.47;;
72974;SDS011;61166;54.228;37.632;2022-09-09T01:44:13;8.57;;;3.08;;
72974;SDS011;61166;54.228;37.632;2022-09-09T01:46:39;5.50;;;2.85;;
72974;SDS011;61166;54.228;37.632;2022-09-09T01:49:05;6.00;;;2.80;;
72974;SDS011;61166;54.228;37.632;2022-09-09T01:51:31;6.00;;;2.33;;
72974;SDS011;61166;54.228;37.632;2022-09-09T01:53:57;8.85;;;2.58;;
72974;SDS011;61166;54.228;37.632;2022-09-09T01:56:42;6.20;;;3.20;;
72974;SDS011;61166;54.228;37.632;2022-09-09T02:06:47;5.53;;;2.42;;
72974;SDS011;61166;54.228;37.632;2022-09-09T02:09:13;5.07;;;2.47;;
72974;SDS011;61166;54.228;37.632;2022-09-09T02:11:40;6.82;;;2.15;;
72974;SDS011;61166;54.228;37.632;2022-09-09T02:14:08;5.90;;;2.33;;
72974;SDS011;61166;54.228;37.632;2022-09-09T02:19:08;5.37;;;2.07;;
72974;SDS011;61166;54.228;37.632;2022-09-09T02:21:35;4.95;;;1.95;;
72974;SDS011;61166;54.228;37.632;2022-09-09T02:24:02;5.27;;;2.40;;
72974;SDS011;61166;54.228;37.632;2022-09-09T02:26:29;7.40;;;2.30;;
72974;SDS011;61166;54.228;37.632;2022-09-09T02:28:56;6.07;;;2.15;;
72974;SDS011;61166;54.228;37.632;2022-09-09T02:31:23;4.95;;;2.15;;
72974;SDS011;61166;54.228;37.632;2022-09-09T02:33:54;4.32;;;1.88;;
72974;SDS011;61166;54.228;37.632;2022-09-09T02:36:20;5.40;;;2.08;;
72974;SDS011;61166;54.228;37.632;2022-09-09T02:38:47;4.35;;;2.22;;
72974;SDS011;61166;54.228;37.632;2022-09-09T02:41:20;4.88;;;2.13;;
72974;SDS011;61166;54.228;37.632;2022-09-09T02:43:47;4.90;;;2.13;;
72974;SDS011;61166;54.228;37.632;2022-09-09T02:48:51;7.00;;;2.53;;
72974;SDS011;61166;54.228;37.632;2022-09-09T02:51:18;6.43;;;2.30;;
72974;SDS011;61166;54.228;37.632;2022-09-09T02:56:20;6.00;;;2.22;;
72974;SDS011;61166;54.228;37.632;2022-09-09T02:58:47;6.55;;;2.22;;
72974;SDS011;61166;54.228;37.632;2022-09-09T03:01:12;6.47;;;2.40;;
72974;SDS011;61166;54.228;37.632;2022-09-09T03:03:39;5.78;;;2.40;;
72974;SDS011;61166;54.228;37.632;2022-09-09T03:06:06;5.10;;;2.38;;
72974;SDS011;61166;54.228;37.632;2022-09-09T03:08:31;5.53;;;2.60;;
72974;SDS011;61166;54.228;37.632;2022-09-09T03:10:58;5.00;;;2.30;;
72974;SDS011;61166;54.228;37.632;2022-09-09T03:13:23;6.70;;;2.97;;
72974;SDS011;61166;54.228;37.632;2022-09-09T03:15:50;5.27;;;2.10;;
72974;SDS011;61166;54.228;37.632;2022-09-09T03:18:16;8.32;;;2.47;;
72974;SDS011;61166;54.228;37.632;2022-09-09T03:20:41;5.43;;;2.07;;
72974;SDS011;61166;54.228;37.632;2022-09-09T03:23:07;5.60;;;2.70;;
72974;SDS011;61166;54.228;37.632;2022-09-09T03:25:32;5.77;;;2.07;;
72974;SDS011;61166;54.228;37.632;2022-09-09T03:27:58;5.68;;;2.30;;
72974;SDS011;61166;54.228;37.632;2022-09-09T03:30:24;6.53;;;2.23;;
72974;SDS011;61166;54.228;37.632;2022-09-09T03:32:50;6.18;;;2.88;;
72974;SDS011;61166;54.228;37.632;2022-09-09T03:35:15;6.13;;;3.50;;
72974;SDS011;61166;54.228;37.632;2022-09-09T03:37:40;8.50;;;7.73;;
72974;SDS011;61166;54.228;37.632;2022-09-09T03:40:06;6.55;;;3.25;;
72974;SDS011;61166;54.228;37.632;2022-09-09T03:42:33;6.90;;;3.88;;
72974;SDS011;61166;54.228;37.632;2022-09-09T03:44:58;5.50;;;4.03;;
72974;SDS011;61166;54.228;37.632;2022-09-09T03:47:24;7.40;;;6.00;;
72974;SDS011;61166;54.228;37.632;2022-09-09T03:49:49;11.83;;;10.27;;
72974;SDS011;61166;54.228;37.632;2022-09-09T03:52:15;11.27;;;10.40;;
72974;SDS011;61166;54.228;37.632;2022-09-09T03:54:41;10.63;;;6.30;;
72974;SDS011;61166;54.228;37.632;2022-09-09T03:57:07;12.18;;;11.20;;
72974;SDS011;61166;54.228;37.632;2022-09-09T03:59:32;6.43;;;3.67;;
72974;SDS011;61166;54.228;37.632;2022-09-09T04:01:58;11.60;;;10.57;;
72974;SDS011;61166;54.228;37.632;2022-09-09T04:04:24;12.50;;;11.60;;
72974;SDS011;61166;54.228;37.632;2022-09-09T04:06:49;11.70;;;10.87;;
72974;SDS011;61166;54.228;37.632;2022-09-09T04:09:16;14.48;;;13.48;;
72974;SDS011;61166;54.228;37.632;2022-09-09T04:11:41;8.93;;;5.03;;
72974;SDS011;61166;54.228;37.632;2022-09-09T04:14:06;12.77;;;11.87;;
72974;SDS011;61166;54.228;37.632;2022-09-09T04:16:32;5.43;;;4.40;;
72974;SDS011;61166;54.228;37.632;2022-09-09T04:18:59;12.48;;;11.57;;
72974;SDS011;61166;54.228;37.632;2022-09-09T04:21:26;13.18;;;12.18;;
72974;SDS011;61166;54.228;37.632;2022-09-09T04:23:51;15.27;;;14.30;;
72974;SDS011;61166;54.228;37.632;2022-09-09T04:26:16;19.17;;;18.03;;
72974;SDS011;61166;54.228;37.632;2022-09-09T04:28:42;19.87;;;18.67;;
72974;SDS011;61166;54.228;37.632;2022-09-09T04:31:08;6.30;;;4.53;;
72974;SDS011;61166;54.228;37.632;2022-09-09T04:33:34;4.85;;;2.80;;
72974;SDS011;61166;54.228;37.632;2022-09-09T04:35:59;5.33;;;4.20;;
72974;SDS011;61166;54.228;37.632;2022-09-09T04:38:25;7.00;;;3.37;;
72974;SDS011;61166;54.228;37.632;2022-09-09T04:40:51;4.43;;;2.75;;
72974;SDS011;61166;54.228;37.632;2022-09-09T04:43:16;6.37;;;3.30;;
72974;SDS011;61166;54.228;37.632;2022-09-09T04:45:42;3.77;;;2.57;;
72974;SDS011;61166;54.228;37.632;2022-09-09T04:48:08;3.97;;;2.10;;
72974;SDS011;61166;54.228;37.632;2022-09-09T04:50:34;3.80;;;2.20;;
72974;SDS011;61166;54.228;37.632;2022-09-09T04:53:00;5.23;;;2.93;;
72974;SDS011;61166;54.228;37.632;2022-09-09T04:55:26;4.47;;;3.10;;
72974;SDS011;61166;54.228;37.632;2022-09-09T04:57:51;5.00;;;3.07;;
72974;SDS011;61166;54.228;37.632;2022-09-09T05:00:16;4.70;;;3.50;;
72974;SDS011;61166;54.228;37.632;2022-09-09T05:02:42;6.33;;;5.13;;
72974;SDS011;61166;54.228;37.632;2022-09-09T05:05:07;5.10;;;3.17;;
72974;SDS011;61166;54.228;37.632;2022-09-09T05:07:33;4.87;;;2.03;;
72974;SDS011;61166;54.228;37.632;2022-09-09T05:09:58;4.63;;;2.30;;
72974;SDS011;61166;54.228;37.632;2022-09-09T05:12:23;5.37;;;2.73;;
72974;SDS011;61166;54.228;37.632;2022-09-09T05:14:50;4.75;;;2.65;;
72974;SDS011;61166;54.228;37.632;2022-09-09T05:17:16;3.77;;;2.03;;
72974;SDS011;61166;54.228;37.632;2022-09-09T05:19:41;5.77;;;2.70;;
72974;SDS011;61166;54.228;37.632;2022-09-09T05:22:06;6.17;;;2.10;;
72974;SDS011;61166;54.228;37.632;2022-09-09T05:24:32;6.22;;;3.60;;
72974;SDS011;61166;54.228;37.632;2022-09-09T05:26:58;5.63;;;2.40;;
72974;SDS011;61166;54.228;37.632;2022-09-09T05:29:26;4.90;;;2.30;;
72974;SDS011;61166;54.228;37.632;2022-09-09T05:31:51;4.20;;;2.30;;
72974;SDS011;61166;54.228;37.632;2022-09-09T05:34:16;4.37;;;2.13;;
72974;SDS011;61166;54.228;37.632;2022-09-09T05:36:42;7.70;;;2.77;;
72974;SDS011;61166;54.228;37.632;2022-09-09T05:39:07;21.70;;;5.57;;
72974;SDS011;61166;54.228;37.632;2022-09-09T05:41:32;7.30;;;2.63;;
72974;SDS011;61166;54.228;37.632;2022-09-09T05:43:57;4.07;;;2.00;;
72974;SDS011;61166;54.228;37.632;2022-09-09T05:46:26;6.53;;;2.30;;
72974;SDS011;61166;54.228;37.632;2022-09-09T05:48:51;5.93;;;2.17;;
72974;SDS011;61166;54.228;37.632;2022-09-09T05:51:19;4.82;;;2.15;;
72974;SDS011;61166;54.228;37.632;2022-09-09T05:53:45;8.63;;;2.30;;
72974;SDS011;61166;54.228;37.632;2022-09-09T05:56:12;5.38;;;2.10;;
72974;SDS011;61166;54.228;37.632;2022-09-09T05:58:39;5.07;;;2.63;;
72974;SDS011;61166;54.228;37.632;2022-09-09T06:01:05;6.63;;;3.38;;
72974;SDS011;61166;54.228;37.632;2022-09-09T06:03:35;7.30;;;3.10;;
72974;SDS011;61166;54.228;37.632;2022-09-09T06:06:01;7.20;;;3.20;;
72974;SDS011;61166;54.228;37.632;2022-09-09T06:08:27;6.68;;;3.42;;
72974;SDS011;61166;54.228;37.632;2022-09-09T06:10:52;6.67;;;3.30;;
72974;SDS011;61166;54.228;37.632;2022-09-09T06:13:17;5.73;;;2.67;;
72974;SDS011;61166;54.228;37.632;2022-09-09T06:15:49;3.97;;;2.10;;
72974;SDS011;61166;54.228;37.632;2022-09-09T06:18:15;5.15;;;2.97;;
72974;SDS011;61166;54.228;37.632;2022-09-09T06:20:52;5.22;;;2.83;;
72974;SDS011;61166;54.228;37.632;2022-09-09T06:23:18;9.23;;;3.10;;
72974;SDS011;61166;54.228;37.632;2022-09-09T06:25:45;5.60;;;3.20;;
72974;SDS011;61166;54.228;37.632;2022-09-09T06:28:11;6.97;;;2.87;;
72974;SDS011;61166;54.228;37.632;2022-09-09T06:30:36;4.90;;;2.93;;
72974;SDS011;61166;54.228;37.632;2022-09-09T06:33:01;5.40;;;2.40;;
72974;SDS011;61166;54.228;37.632;2022-09-09T06:35:27;4.68;;;2.15;;
72974;SDS011;61166;54.228;37.632;2022-09-09T06:37:53;5.23;;;2.50;;
72974;SDS011;61166;54.228;37.632;2022-09-09T06:40:18;4.60;;;3.17;;
72974;SDS011;61166;54.228;37.632;2022-09-09T06:42:43;4.60;;;3.00;;
72974;SDS011;61166;54.228;37.632;2022-09-09T06:45:08;4.33;;;3.93;;
72974;SDS011;61166;54.228;37.632;2022-09-09T06:47:34;4.63;;;3.58;;
72974;SDS011;61166;54.228;37.632;2022-09-09T06:49:59;5.40;;;4.90;;
72974;SDS011;61166;54.228;37.632;2022-09-09T06:52:24;5.03;;;3.87;;
72974;SDS011;61166;54.228;37.632;2022-09-09T06:54:50;5.47;;;4.97;;
72974;SDS011;61166;54.228;37.632;2022-09-09T06:57:15;5.83;;;4.83;;
72974;SDS011;61166;54.228;37.632;2022-09-09T06:59:41;4.63;;;4.20;;
72974;SDS011;61166;54.228;37.632;2022-09-09T07:02:07;6.03;;;5.13;;
72974;SDS011;61166;54.228;37.632;2022-09-09T07:04:33;5.30;;;4.90;;
72974;SDS011;61166;54.228;37.632;2022-09-09T07:06:58;5.57;;;4.33;;
72974;SDS011;61166;54.228;37.632;2022-09-09T07:09:23;5.70;;;5.17;;
72974;SDS011;61166;54.228;37.632;2022-09-09T07:11:49;3.47;;;3.17;;
72974;SDS011;61166;54.228;37.632;2022-09-09T07:14:16;2.78;;;2.25;;
72974;SDS011;61166;54.228;37.632;2022-09-09T07:16:42;4.03;;;2.50;;
72974;SDS011;61166;54.228;37.632;2022-09-09T07:19:07;4.93;;;2.53;;
72974;SDS011;61166;54.228;37.632;2022-09-09T07:21:33;3.95;;;2.15;;
72974;SDS011;61166;54.228;37.632;2022-09-09T07:23:58;4.33;;;3.90;;
72974;SDS011;61166;54.228;37.632;2022-09-09T07:26:24;5.03;;;4.13;;
72974;SDS011;61166;54.228;37.632;2022-09-09T07:28:50;2.33;;;1.42;;
72974;SDS011;61166;54.228;37.632;2022-09-09T07:31:20;5.47;;;4.30;;
72974;SDS011;61166;54.228;37.632;2022-09-09T07:33:46;3.90;;;3.60;;
72974;SDS011;61166;54.228;37.632;2022-09-09T07:36:13;3.72;;;2.33;;
72974;SDS011;61166;54.228;37.632;2022-09-09T07:38:42;5.18;;;4.72;;
72974;SDS011;61166;54.228;37.632;2022-09-09T07:41:12;3.43;;;2.73;;
72974;SDS011;61166;54.228;37.632;2022-09-09T07:43:41;3.45;;;2.90;;
72974;SDS011;61166;54.228;37.632;2022-09-09T07:46:07;6.18;;;5.10;;
72974;SDS011;61166;54.228;37.632;2022-09-09T07:48:33;5.23;;;3.77;;
72974;SDS011;61166;54.228;37.632;2022-09-09T07:53:33;2.45;;;1.52;;
72974;SDS011;61166;54.228;37.632;2022-09-09T07:56:05;2.83;;;1.60;;
72974;SDS011;61166;54.228;37.632;2022-09-09T07:58:30;4.20;;;1.05;;
72974;SDS011;61166;54.228;37.632;2022-09-09T08:00:56;3.17;;;1.90;;
72974;SDS011;61166;54.228;37.632;2022-09-09T08:03:22;5.85;;;2.83;;
72974;SDS011;61166;54.228;37.632;2022-09-09T08:05:48;2.97;;;2.00;;
72974;SDS011;61166;54.228;37.632;2022-09-09T08:08:13;4.77;;;2.10;;
72974;SDS011;61166;54.228;37.632;2022-09-09T08:10:39;3.80;;;2.20;;
72974;SDS011;61166;54.228;37.632;2022-09-09T08:13:04;4.53;;;1.37;;
72974;SDS011;61166;54.228;37.632;2022-09-09T08:15:31;3.17;;;1.63;;
72974;SDS011;61166;54.228;37.632;2022-09-09T08:17:57;2.60;;;2.10;;
72974;SDS011;61166;54.228;37.632;2022-09-09T08:20:22;4.40;;;2.67;;
72974;SDS011;61166;54.228;37.632;2022-09-09T08:22:48;2.72;;;1.52;;
72974;SDS011;61166;54.228;37.632;2022-09-09T08:25:14;2.50;;;1.90;;
72974;SDS011;61166;54.228;37.632;2022-09-09T08:27:40;2.10;;;1.67;;
72974;SDS011;61166;54.228;37.632;2022-09-09T08:30:05;2.80;;;1.60;;
72974;SDS011;61166;54.228;37.632;2022-09-09T08:32:30;3.87;;;1.80;;
72974;SDS011;61166;54.228;37.632;2022-09-09T08:34:56;2.33;;;1.60;;
72974;SDS011;61166;54.228;37.632;2022-09-09T08:37:21;3.50;;;2.30;;
72974;SDS011;61166;54.228;37.632;2022-09-09T08:39:46;2.30;;;1.17;;
72974;SDS011;61166;54.228;37.632;2022-09-09T08:42:46;2.63;;;1.40;;
72974;SDS011;61166;54.228;37.632;2022-09-09T08:48:01;3.65;;;2.60;;
72974;SDS011;61166;54.228;37.632;2022-09-09T08:50:29;3.47;;;2.93;;
72974;SDS011;61166;54.228;37.632;2022-09-09T08:58:11;4.22;;;1.90;;
72974;SDS011;61166;54.228;37.632;2022-09-09T09:00:40;2.83;;;1.50;;
72974;SDS011;61166;54.228;37.632;2022-09-09T09:05:59;5.30;;;2.97;;
72974;SDS011;61166;54.228;37.632;2022-09-09T09:10:57;5.97;;;3.90;;
72974;SDS011;61166;54.228;37.632;2022-09-09T09:16:13;3.97;;;2.10;;
72974;SDS011;61166;54.228;37.632;2022-09-09T09:18:41;6.10;;;3.30;;
72974;SDS011;61166;54.228;37.632;2022-09-09T09:21:12;4.70;;;2.40;;
72974;SDS011;61166;54.228;37.632;2022-09-09T09:23:42;3.30;;;1.83;;
72974;SDS011;61166;54.228;37.632;2022-09-09T09:26:09;7.20;;;4.50;;
72974;SDS011;61166;54.228;37.632;2022-09-09T09:28:36;5.55;;;3.50;;
72974;SDS011;61166;54.228;37.632;2022-09-09T09:36:11;5.03;;;3.42;;
72974;SDS011;61166;54.228;37.632;2022-09-09T09:38:40;2.97;;;1.92;;
72974;SDS011;61166;54.228;37.632;2022-09-09T09:41:16;3.58;;;2.60;;
72974;SDS011;61166;54.228;37.632;2022-09-09T09:43:52;5.77;;;2.17;;
72974;SDS011;61166;54.228;37.632;2022-09-09T09:46:32;6.50;;;3.83;;
72974;SDS011;61166;54.228;37.632;2022-09-09T09:49:02;5.27;;;3.40;;
72974;SDS011;61166;54.228;37.632;2022-09-09T09:51:28;8.77;;;4.75;;
72974;SDS011;61166;54.228;37.632;2022-09-09T09:53:54;7.65;;;3.10;;
72974;SDS011;61166;54.228;37.632;2022-09-09T09:56:28;2.85;;;1.60;;
72974;SDS011;61166;54.228;37.632;2022-09-09T09:58:54;4.07;;;2.70;;
72974;SDS011;61166;54.228;37.632;2022-09-09T10:01:23;3.20;;;2.40;;
72974;SDS011;61166;54.228;37.632;2022-09-09T10:03:53;2.20;;;1.60;;
72974;SDS011;61166;54.228;37.632;2022-09-09T10:06:29;2.00;;;1.33;;
72974;SDS011;61166;54.228;37.632;2022-09-09T10:08:54;2.00;;;1.00;;
72974;SDS011;61166;54.228;37.632;2022-09-09T10:19:15;5.73;;;2.93;;
72974;SDS011;61166;54.228;37.632;2022-09-09T10:37:52;4.10;;;2.40;;
72974;SDS011;61166;54.228;37.632;2022-09-09T10:40:32;3.78;;;1.50;;
72974;SDS011;61166;54.228;37.632;2022-09-09T10:43:03;3.55;;;1.15;;
72974;SDS011;61166;54.228;37.632;2022-09-09T10:48:29;6.27;;;3.33;;
72974;SDS011;61166;54.228;37.632;2022-09-09T10:51:33;4.00;;;1.90;;
72974;SDS011;61166;54.228;37.632;2022-09-09T10:53:51;3.30;;;1.40;;
72974;SDS011;61166;54.228;37.632;2022-09-09T10:56:18;2.95;;;1.45;;
72974;SDS011;61166;54.228;37.632;2022-09-09T11:01:28;2.60;;;0.93;;
72974;SDS011;61166;54.228;37.632;2022-09-09T11:03:57;3.80;;;1.00;;
72974;SDS011;61166;54.228;37.632;2022-09-09T11:06:26;3.35;;;1.52;;
72974;SDS011;61166;54.228;37.632;2022-09-09T11:08:53;6.38;;;3.45;;
72974;SDS011;61166;54.228;37.632;2022-09-09T11:11:34;4.32;;;1.88;;
72974;SDS011;61166;54.228;37.632;2022-09-09T11:14:26;5.27;;;2.20;;
72974;SDS011;61166;54.228;37.632;2022-09-09T11:16:52;5.30;;;2.10;;
72974;SDS011;61166;54.228;37.632;2022-09-09T11:19:34;4.20;;;1.83;;
72974;SDS011;61166;54.228;37.632;2022-09-09T11:22:01;2.80;;;1.20;;
72974;SDS011;61166;54.228;37.632;2022-09-09T11:24:29;2.85;;;1.42;;
72974;SDS011;61166;54.228;37.632;2022-09-09T11:31:57;3.30;;;1.00;;
72974;SDS011;61166;54.228;37.632;2022-09-09T11:37:21;3.97;;;1.75;;
72974;SDS011;61166;54.228;37.632;2022-09-09T11:39:52;2.40;;;1.13;;
72974;SDS011;61166;54.228;37.632;2022-09-09T11:42:20;3.50;;;1.97;;
72974;SDS011;61166;54.228;37.632;2022-09-09T11:44:45;2.97;;;1.25;;
72974;SDS011;61166;54.228;37.632;2022-09-09T11:47:22;2.20;;;1.13;;
72974;SDS011;61166;54.228;37.632;2022-09-09T11:49:49;4.63;;;1.80;;
72974;SDS011;61166;54.228;37.632;2022-09-09T11:52:21;2.43;;;1.13;;
72974;SDS011;61166;54.228;37.632;2022-09-09T11:54:48;5.97;;;2.60;;
72974;SDS011;61166;54.228;37.632;2022-09-09T11:57:24;2.67;;;1.00;;
72974;SDS011;61166;54.228;37.632;2022-09-09T11:59:51;2.15;;;0.82;;
72974;SDS011;61166;54.228;37.632;2022-09-09T12:02:27;2.88;;;1.20;;
72974;SDS011;61166;54.228;37.632;2022-09-09T12:04:57;4.17;;;1.10;;
72974;SDS011;61166;54.228;37.632;2022-09-09T12:09:51;2.40;;;1.20;;
72974;SDS011;61166;54.228;37.632;2022-09-09T12:17:30;3.40;;;1.20;;
72974;SDS011;61166;54.228;37.632;2022-09-09T12:20:04;3.10;;;1.30;;
72974;SDS011;61166;54.228;37.632;2022-09-09T12:25:27;5.43;;;1.45;;
72974;SDS011;61166;54.228;37.632;2022-09-09T12:30:22;3.20;;;1.13;;
72974;SDS011;61166;54.228;37.632;2022-09-09T12:33:00;2.67;;;0.80;;
72974;SDS011;61166;54.228;37.632;2022-09-09T12:35:26;3.15;;;0.85;;
72974;SDS011;61166;54.228;37.632;2022-09-09T12:37:53;2.17;;;0.90;;
72974;SDS011;61166;54.228;37.632;2022-09-09T12:40:29;2.67;;;1.27;;
72974;SDS011;61166;54.228;37.632;2022-09-09T12:42:54;3.90;;;1.90;;
72974;SDS011;61166;54.228;37.632;2022-09-09T12:45:25;4.67;;;1.33;;
72974;SDS011;61166;54.228;37.632;2022-09-09T12:47:54;3.10;;;1.30;;
72974;SDS011;61166;54.228;37.632;2022-09-09T12:50:22;4.00;;;1.85;;
72974;SDS011;61166;54.228;37.632;2022-09-09T12:52:48;3.67;;;1.27;;
72974;SDS011;61166;54.228;37.632;2022-09-09T12:55:18;2.58;;;1.05;;
72974;SDS011;61166;54.228;37.632;2022-09-09T12:57:46;6.93;;;3.13;;
72974;SDS011;61166;54.228;37.632;2022-09-09T13:00:16;5.53;;;2.20;;
72974;SDS011;61166;54.228;37.632;2022-09-09T13:02:45;3.85;;;1.60;;
72974;SDS011;61166;54.228;37.632;2022-09-09T13:05:21;3.10;;;1.40;;
72974;SDS011;61166;54.228;37.632;2022-09-09T13:07:46;2.70;;;1.17;;
72974;SDS011;61166;54.228;37.632;2022-09-09T13:10:13;2.93;;;1.10;;
72974;SDS011;61166;54.228;37.632;2022-09-09T13:12:38;3.65;;;1.35;;
72974;SDS011;61166;54.228;37.632;2022-09-09T13:15:04;2.63;;;1.20;;
72974;SDS011;61166;54.228;37.632;2022-09-09T13:17:34;4.97;;;2.00;;
72974;SDS011;61166;54.228;37.632;2022-09-09T13:20:00;3.22;;;1.10;;
72974;SDS011;61166;54.228;37.632;2022-09-09T13:25:03;6.30;;;2.10;;
72974;SDS011;61166;54.228;37.632;2022-09-09T13:27:30;6.70;;;2.42;;
72974;SDS011;61166;54.228;37.632;2022-09-09T13:29:56;6.85;;;2.70;;
72974;SDS011;61166;54.228;37.632;2022-09-09T13:32:22;7.77;;;2.80;;
72974;SDS011;61166;54.228;37.632;2022-09-09T13:34:51;10.15;;;4.00;;
72974;SDS011;61166;54.228;37.632;2022-09-09T13:37:28;15.45;;;7.45;;
72974;SDS011;61166;54.228;37.632;2022-09-09T13:39:55;7.97;;;4.15;;
72974;SDS011;61166;54.228;37.632;2022-09-09T13:42:27;5.90;;;2.57;;
72974;SDS011;61166;54.228;37.632;2022-09-09T13:44:53;5.18;;;2.63;;
72974;SDS011;61166;54.228;37.632;2022-09-09T13:47:21;4.97;;;1.43;;
72974;SDS011;61166;54.228;37.632;2022-09-09T13:49:51;2.80;;;1.17;;
72974;SDS011;61166;54.228;37.632;2022-09-09T13:52:17;4.30;;;1.40;;
72974;SDS011;61166;54.228;37.632;2022-09-09T13:54:52;2.78;;;1.15;;
72974;SDS011;61166;54.228;37.632;2022-09-09T13:57:20;4.72;;;1.33;;
72974;SDS011;61166;54.228;37.632;2022-09-09T13:59:45;3.13;;;1.40;;
72974;SDS011;61166;54.228;37.632;2022-09-09T14:02:11;3.77;;;0.90;;
72974;SDS011;61166;54.228;37.632;2022-09-09T14:04:36;2.27;;;1.00;;
72974;SDS011;61166;54.228;37.632;2022-09-09T14:07:01;2.77;;;1.20;;
72974;SDS011;61166;54.228;37.632;2022-09-09T14:09:27;4.60;;;1.30;;
72974;SDS011;61166;54.228;37.632;2022-09-09T14:11:52;3.40;;;1.37;;
72974;SDS011;61166;54.228;37.632;2022-09-09T14:14:17;3.70;;;1.03;;
72974;SDS011;61166;54.228;37.632;2022-09-09T14:16:43;3.97;;;1.10;;
72974;SDS011;61166;54.228;37.632;2022-09-09T14:19:08;6.60;;;1.20;;
72974;SDS011;61166;54.228;37.632;2022-09-09T14:21:34;2.35;;;0.82;;
72974;SDS011;61166;54.228;37.632;2022-09-09T14:23:59;3.13;;;1.10;;
72974;SDS011;61166;54.228;37.632;2022-09-09T14:26:25;5.73;;;2.27;;
72974;SDS011;61166;54.228;37.632;2022-09-09T14:28:51;11.30;;;5.30;;
72974;SDS011;61166;54.228;37.632;2022-09-09T14:31:16;23.77;;;7.57;;
72974;SDS011;61166;54.228;37.632;2022-09-09T14:33:42;25.03;;;8.87;;
72974;SDS011;61166;54.228;37.632;2022-09-09T14:36:08;15.47;;;5.17;;
72974;SDS011;61166;54.228;37.632;2022-09-09T14:38:34;9.03;;;1.90;;
72974;SDS011;61166;54.228;37.632;2022-09-09T14:41:03;8.80;;;2.97;;
72974;SDS011;61166;54.228;37.632;2022-09-09T14:43:29;11.80;;;3.37;;
72974;SDS011;61166;54.228;37.632;2022-09-09T14:45:55;7.32;;;2.85;;
72974;SDS011;61166;54.228;37.632;2022-09-09T14:48:20;7.40;;;1.87;;
72974;SDS011;61166;54.228;37.632;2022-09-09T14:50:45;5.33;;;2.00;;
72974;SDS011;61166;54.228;37.632;2022-09-09T14:53:10;5.77;;;1.90;;
72974;SDS011;61166;54.228;37.632;2022-09-09T14:55:36;6.70;;;2.10;;
72974;SDS011;61166;54.228;37.632;2022-09-09T14:58:02;8.30;;;3.13;;
72974;SDS011;61166;54.228;37.632;2022-09-09T15:00:27;17.15;;;5.43;;
72974;SDS011;61166;54.228;37.632;2022-09-09T15:02:53;51.27;;;13.07;;
72974;SDS011;61166;54.228;37.632;2022-09-09T15:05:18;21.43;;;6.83;;
72974;SDS011;61166;54.228;37.632;2022-09-09T15:07:44;17.55;;;6.53;;
72974;SDS011;61166;54.228;37.632;2022-09-09T15:10:09;22.20;;;7.67;;
72974;SDS011;61166;54.228;37.632;2022-09-09T15:12:35;44.55;;;11.93;;
72974;SDS011;61166;54.228;37.632;2022-09-09T15:15:01;44.17;;;11.77;;
72974;SDS011;61166;54.228;37.632;2022-09-09T15:17:26;52.33;;;13.03;;
72974;SDS011;61166;54.228;37.632;2022-09-09T15:19:52;46.20;;;11.83;;
72974;SDS011;61166;54.228;37.632;2022-09-09T15:22:17;30.07;;;8.83;;
72974;SDS011;61166;54.228;37.632;2022-09-09T15:24:43;15.55;;;5.05;;
72974;SDS011;61166;54.228;37.632;2022-09-09T15:27:08;14.87;;;4.47;;
72974;SDS011;61166;54.228;37.632;2022-09-09T15:29:33;16.97;;;5.70;;
72974;SDS011;61166;54.228;37.632;2022-09-09T15:31:59;9.77;;;4.27;;
72974;SDS011;61166;54.228;37.632;2022-09-09T15:34:24;13.00;;;4.90;;
72974;SDS011;61166;54.228;37.632;2022-09-09T15:36:50;13.82;;;6.40;;
72974;SDS011;61166;54.228;37.632;2022-09-09T15:39:16;19.50;;;7.77;;
72974;SDS011;61166;54.228;37.632;2022-09-09T15:41:45;22.02;;;10.48;;
72974;SDS011;61166;54.228;37.632;2022-09-09T15:44:10;33.08;;;12.52;;
72974;SDS011;61166;54.228;37.632;2022-09-09T15:46:48;48.95;;;17.00;;
72974;SDS011;61166;54.228;37.632;2022-09-09T15:51:47;36.22;;;12.52;;
72974;SDS011;61166;54.228;37.632;2022-09-09T15:54:13;31.65;;;10.73;;
72974;SDS011;61166;54.228;37.632;2022-09-09T15:56:39;23.00;;;9.23;;
72974;SDS011;61166;54.228;37.632;2022-09-09T15:59:05;80.77;;;37.47;;
72974;SDS011;61166;54.228;37.632;2022-09-09T16:01:30;41.23;;;17.57;;
72974;SDS011;61166;54.228;37.632;2022-09-09T16:03:56;24.10;;;11.57;;
72974;SDS011;61166;54.228;37.632;2022-09-09T16:06:22;16.23;;;7.33;;
72974;SDS011;61166;54.228;37.632;2022-09-09T16:08:48;20.83;;;8.80;;
72974;SDS011;61166;54.228;37.632;2022-09-09T16:11:27;17.30;;;7.68;;
72974;SDS011;61166;54.228;37.632;2022-09-09T16:13:53;13.48;;;5.93;;
72974;SDS011;61166;54.228;37.632;2022-09-09T16:16:20;11.53;;;5.17;;
72974;SDS011;61166;54.228;37.632;2022-09-09T16:18:47;13.37;;;6.50;;
72974;SDS011;61166;54.228;37.632;2022-09-09T16:21:17;17.77;;;7.47;;
72974;SDS011;61166;54.228;37.632;2022-09-09T16:23:42;20.38;;;7.80;;
72974;SDS011;61166;54.228;37.632;2022-09-09T16:26:10;21.25;;;9.23;;
72974;SDS011;61166;54.228;37.632;2022-09-09T16:28:36;22.33;;;11.65;;
72974;SDS011;61166;54.228;37.632;2022-09-09T16:31:03;36.58;;;14.57;;
72974;SDS011;61166;54.228;37.632;2022-09-09T16:33:29;34.28;;;14.85;;
72974;SDS011;61166;54.228;37.632;2022-09-09T16:35:55;14.20;;;5.00;;
72974;SDS011;61166;54.228;37.632;2022-09-09T16:38:20;25.93;;;11.47;;
72974;SDS011;61166;54.228;37.632;2022-09-09T16:40:45;26.63;;;10.80;;
72974;SDS011;61166;54.228;37.632;2022-09-09T16:43:11;22.10;;;11.47;;